Time;durP1;ratioP1;P1;durP2;ratioP2;P2;SDS_P1;SDS_P2;PMS_P1;PMS_P2;Temp;Humidity;BMP_temperature;BMP_pressure;BME280_temperature;BME280_humidity;BME280_pressure;Samples;Min_cycle;Max_cycle;Signal;HPM_P1;HPM_P2
2023/05/01 00:08:06;;;;;;;2.30;1.20;;;;;;;20.81;47.42;98529.44;20998874;28;20044;-72
2023/05/01 00:18:07;;;;;;;1.63;1.00;;;;;;;20.81;47.19;98507.22;20983801;28;20033;-73
2023/05/01 00:28:09;;;;;;;1.33;1.10;;;;;;;20.83;47.33;98470.72;21003239;28;20063;-73
2023/05/01 00:38:10;;;;;;;1.40;1.30;;;;;;;20.52;47.03;98382.22;20965694;28;20063;-73
2023/05/01 00:48:12;;;;;;;2.47;1.60;;;;;;;20.75;47.12;98408.50;20979314;28;20040;-73
2023/05/01 00:58:17;;;;;;;2.67;1.00;;;;;;;20.79;47.01;98403.88;20997147;28;20136;-72
2023/05/01 01:08:41;;;;;;;3.17;1.70;;;;;;;20.80;47.25;98404.69;20982169;28;20040;-72
2023/05/01 01:18:55;;;;;;;2.20;1.20;;;;;;;20.85;46.76;98406.44;20971251;28;20040;-72
2023/05/01 01:29:14;;;;;;;1.95;1.40;;;;;;;20.86;47.04;98394.19;20978988;28;20101;-72
2023/05/01 01:39:44;;;;;;;2.47;1.30;;;;;;;20.56;47.12;98353.41;20951559;28;20036;-72
2023/05/01 01:49:52;;;;;;;1.40;1.30;;;;;;;20.86;46.86;98396.97;20998890;28;20041;-71
2023/05/01 01:59:55;;;;;;;1.80;1.20;;;;;;;20.87;46.66;98393.03;21031644;28;20376;-74
2023/05/01 02:09:58;;;;;;;4.95;1.20;;;;;;;20.96;47.02;98418.78;21022737;28;20177;-75
2023/05/01 02:20:00;;;;;;;2.08;1.42;;;;;;;20.79;45.85;98394.72;20974975;28;20048;-73
2023/05/01 02:30:06;;;;;;;6.97;1.60;;;;;;;21.02;46.32;98439.66;20974281;28;20454;-76
2023/05/01 02:40:10;;;;;;;5.18;1.85;;;;;;;21.08;46.55;98438.31;20978528;28;20039;-77
2023/05/01 02:50:14;;;;;;;7.13;2.28;;;;;;;21.11;46.79;98448.72;20939927;28;20044;-77
2023/05/01 03:00:15;;;;;;;11.73;2.28;;;;;;;21.07;47.53;98447.78;20989065;28;20418;-76
2023/05/01 03:10:17;;;;;;;8.27;1.70;;;;;;;21.08;47.23;98446.66;20999288;28;20048;-77
2023/05/01 03:20:18;;;;;;;6.57;1.60;;;;;;;21.01;47.31;98443.59;20998686;28;20044;-76
2023/05/01 03:30:20;;;;;;;4.28;1.88;;;;;;;20.96;47.29;98452.16;21013347;28;20193;-75
2023/05/01 03:40:21;;;;;;;7.65;1.52;;;;;;;21.08;47.05;98485.56;20990261;28;20040;-75
2023/05/01 03:50:22;;;;;;;6.05;1.75;;;;;;;21.05;47.15;98508.50;21019997;28;20032;-76
2023/05/01 04:00:24;;;;;;;3.25;1.48;;;;;;;21.01;47.67;98504.75;21018032;28;20041;-75
2023/05/01 04:10:34;;;;;;;2.78;1.52;;;;;;;21.01;47.55;98560.38;21005818;28;20049;-76
2023/05/01 04:20:36;;;;;;;2.75;1.20;;;;;;;20.94;47.39;98577.59;21013808;28;20066;-75
2023/05/01 04:30:38;;;;;;;3.88;1.45;;;;;;;20.99;48.00;98618.28;20976264;28;20071;-75
2023/05/01 04:40:39;;;;;;;3.95;1.65;;;;;;;21.01;47.93;98666.03;20970541;28;20075;-76
2023/05/01 04:50:40;;;;;;;2.17;1.45;;;;;;;20.99;47.78;98718.38;20996914;28;20025;-75
2023/05/01 05:00:42;;;;;;;10.35;1.73;;;;;;;20.81;47.78;98662.88;20951083;28;20075;-74
2023/05/01 05:10:43;;;;;;;2.83;1.15;;;;;;;20.86;48.08;98741.66;20973205;28;20043;-74
2023/05/01 05:20:45;;;;;;;3.25;1.30;;;;;;;20.95;48.13;98761.91;20994858;28;20036;-75
2023/05/01 05:30:46;;;;;;;3.15;1.10;;;;;;;20.97;48.19;98815.19;20987745;28;20550;-76
2023/05/01 05:40:48;;;;;;;2.63;1.40;;;;;;;20.89;47.94;98788.25;20936227;28;20412;-76
2023/05/01 05:50:58;;;;;;;3.38;1.20;;;;;;;17.73;47.96;98364.72;20952826;28;20041;-76
2023/05/01 06:00:59;;;;;;;1.95;1.35;;;;;;;20.95;47.89;98828.63;20996759;28;20044;-75
2023/05/01 06:11:00;;;;;;;1.27;1.17;;;;;;;20.93;47.98;98830.91;20981782;28;20488;-75
2023/05/01 06:21:02;;;;;;;1.85;1.17;;;;;;;20.93;47.88;98758.63;20994375;28;20036;-75
2023/05/01 06:31:04;;;;;;;1.27;1.05;;;;;;;20.77;47.96;98716.69;20904183;28;20067;-75
2023/05/01 06:41:06;;;;;;;1.40;0.90;;;;;;;20.91;47.64;98672.78;20893795;28;20040;-76
2023/05/01 06:51:07;;;;;;;1.27;1.05;;;;;;;20.74;47.67;98718.16;20886738;28;20064;-76
2023/05/01 07:01:11;;;;;;;1.40;1.10;;;;;;;20.46;47.57;98741.91;20909024;28;20025;-75
2023/05/01 07:11:12;;;;;;;1.33;1.00;;;;;;;20.86;47.84;98883.44;20886442;28;20463;-76
2023/05/01 07:21:16;;;;;;;1.00;0.80;;;;;;;20.87;47.51;98915.66;20976682;28;20074;-77
2023/05/01 07:31:18;;;;;;;1.40;0.85;;;;;;;20.75;47.65;98947.69;20976080;28;20040;-76
2023/05/01 07:41:20;;;;;;;1.30;1.20;;;;;;;20.85;47.53;99018.00;20964507;28;20556;-76
2023/05/01 07:51:22;;;;;;;0.98;0.70;;;;;;;20.85;47.33;99009.66;20981014;28;20048;-76
2023/05/01 08:01:24;;;;;;;0.93;0.77;;;;;;;20.83;47.31;99031.41;21002265;28;20067;-76
2023/05/01 08:11:26;;;;;;;1.45;1.10;;;;;;;20.81;47.14;99015.91;20983405;28;20106;-76
2023/05/01 08:21:27;;;;;;;1.58;0.90;;;;;;;20.26;47.39;98935.88;20899904;28;20045;-76
2023/05/01 08:31:28;;;;;;;2.00;0.93;;;;;;;20.69;47.07;99024.06;20841631;28;20388;-76
2023/05/01 08:41:31;;;;;;;0.85;0.85;;;;;;;20.72;47.21;99106.78;20903462;28;20306;-75
2023/05/01 08:51:35;;;;;;;0.73;0.73;;;;;;;20.67;47.15;99097.78;20868547;28;20111;-75
2023/05/01 09:01:37;;;;;;;1.27;0.75;;;;;;;20.73;47.12;99139.00;20890824;28;20484;-75
2023/05/01 09:11:39;;;;;;;1.55;0.90;;;;;;;20.74;46.94;99170.38;20938032;28;20048;-76
2023/05/01 09:21:41;;;;;;;1.10;1.00;;;;;;;20.74;47.05;99165.66;20999288;28;20109;-76
2023/05/01 09:31:42;;;;;;;1.20;0.88;;;;;;;20.73;46.94;99165.97;20980327;28;20532;-75
2023/05/01 09:41:53;;;;;;;0.90;0.80;;;;;;;20.67;46.86;99167.28;20944102;28;20033;-75
2023/05/01 09:52:13;;;;;;;1.17;0.73;;;;;;;20.48;46.92;99160.03;20953465;28;20041;-75
2023/05/01 10:02:29;;;;;;;1.08;0.85;;;;;;;20.62;46.89;99193.25;20947683;28;20032;-75
2023/05/01 10:12:33;;;;;;;1.20;0.80;;;;;;;20.66;46.75;99208.13;20961743;28;20041;-75
2023/05/01 10:22:35;;;;;;;2.78;0.82;;;;;;;20.35;46.77;99171.22;20981404;28;20040;-74
2023/05/01 10:32:37;;;;;;;0.80;0.80;;;;;;;20.65;46.46;99230.69;20956893;28;20385;-74
2023/05/01 10:43:16;;;;;;;1.02;0.63;;;;;;;20.58;46.92;99247.84;20986764;28;20525;-75
2023/05/01 10:53:18;;;;;;;0.88;0.80;;;;;;;20.61;46.97;99258.28;20973867;28;20101;-76
2023/05/01 11:03:22;;;;;;;15.68;1.65;;;;;;;20.58;46.92;99281.19;20945582;28;20041;-74
2023/05/01 11:13:59;;;;;;;7.38;1.23;;;;;;;20.55;46.78;99298.47;20936574;28;20488;-73
2023/05/01 11:24:07;;;;;;;3.50;1.00;;;;;;;20.47;46.33;99302.00;20878023;28;20121;-73
2023/05/01 11:34:09;;;;;;;6.43;1.05;;;;;;;20.60;45.99;99342.81;21000617;28;20082;-73
2023/05/01 11:44:22;;;;;;;4.43;1.00;;;;;;;20.61;45.93;99361.13;20983392;28;20041;-74
2023/05/01 11:54:28;;;;;;;2.35;0.80;;;;;;;20.65;45.28;99367.69;20975955;28;20067;-70
2023/05/01 12:04:29;;;;;;;2.92;0.90;;;;;;;20.56;45.50;99364.03;21005626;28;20044;-70
2023/05/01 12:14:31;;;;;;;2.53;1.10;;;;;;;20.71;45.12;99383.13;21005140;28;20060;-70
2023/05/01 12:24:34;;;;;;;2.17;1.10;;;;;;;20.61;45.40;99372.25;21004432;28;20037;-71
2023/05/01 12:34:37;;;;;;;3.53;0.90;;;;;;;20.72;45.05;99395.88;21004160;28;20037;-70
2023/05/01 12:44:42;;;;;;;2.08;0.93;;;;;;;20.72;44.97;99398.66;20997043;28;20098;-70
2023/05/01 12:54:43;;;;;;;0.88;0.85;;;;;;;20.66;44.96;99385.19;21001387;28;20449;-70
2023/05/01 13:04:47;;;;;;;1.63;1.10;;;;;;;20.72;45.04;99393.09;20996190;28;20045;-71
2023/05/01 13:14:49;;;;;;;2.20;0.80;;;;;;;20.53;44.92;99356.34;20964828;28;20499;-70
2023/05/01 13:24:51;;;;;;;1.50;1.08;;;;;;;20.73;44.71;99386.38;20916455;28;20049;-69
2023/05/01 13:34:53;;;;;;;2.03;1.10;;;;;;;20.65;44.55;99381.59;20915680;28;20044;-68
2023/05/01 13:44:56;;;;;;;3.95;1.98;;;;;;;20.75;44.68;99389.66;20915994;28;20071;-69
2023/05/01 13:54:58;;;;;;;4.80;1.70;;;;;;;20.28;44.98;99339.13;20913725;28;20055;-72
2023/05/01 14:04:59;;;;;;;3.72;1.63;;;;;;;20.79;44.98;99398.19;20914193;28;20087;-72
2023/05/01 14:15:01;;;;;;;3.53;1.60;;;;;;;20.68;44.57;99372.63;20913153;28;20071;-72
2023/05/01 14:25:05;;;;;;;5.80;2.00;;;;;;;20.72;44.65;99365.28;20912926;28;20353;-72
2023/05/01 14:35:11;;;;;;;3.92;1.65;;;;;;;20.75;44.43;99378.53;20893562;28;20037;-72
2023/05/01 14:45:16;;;;;;;3.67;2.10;;;;;;;20.86;44.48;99404.16;20911264;28;20029;-72
2023/05/01 14:55:18;;;;;;;5.03;2.30;;;;;;;20.67;44.45;99368.22;20909678;28;20082;-72
2023/05/01 15:05:20;;;;;;;4.80;1.75;;;;;;;20.93;44.24;99409.25;20909558;28;20021;-72
2023/05/01 15:15:21;;;;;;;2.72;1.63;;;;;;;20.96;44.14;99437.25;20909546;28;20041;-72
2023/05/01 15:25:25;;;;;;;4.45;1.90;;;;;;;20.94;44.08;99422.03;20909539;28;20017;-73
2023/05/01 15:35:27;;;;;;;4.85;2.00;;;;;;;20.96;44.14;99414.16;20890766;28;20041;-72
2023/05/01 15:45:28;;;;;;;4.25;1.85;;;;;;;20.81;44.18;99382.84;20890099;28;20037;-72
2023/05/01 15:55:30;;;;;;;4.80;1.58;;;;;;;20.83;44.39;99387.25;20907192;28;20052;-72
2023/05/01 16:05:31;;;;;;;4.43;1.65;;;;;;;20.97;44.40;99432.50;20906686;28;20110;-71
2023/05/01 16:15:36;;;;;;;4.07;1.90;;;;;;;20.81;44.24;99396.75;20890403;28;20041;-71
2023/05/01 16:25:42;;;;;;;5.63;1.70;;;;;;;20.97;43.88;99438.88;20922312;28;20096;-71
2023/05/01 16:35:48;;;;;;;3.72;1.52;;;;;;;20.92;44.13;99425.09;20921369;28;20049;-71
2023/05/01 16:45:52;;;;;;;3.40;1.60;;;;;;;20.35;43.87;99332.31;20920466;28;20025;-71
2023/05/01 16:55:54;;;;;;;4.47;1.70;;;;;;;20.89;43.70;99416.56;20921511;28;20037;-72
2023/05/01 17:05:57;;;;;;;2.97;1.48;;;;;;;20.91;43.87;99412.34;20901056;28;20041;-72
2023/05/01 17:15:59;;;;;;;3.92;1.60;;;;;;;20.92;43.66;99402.03;20921869;28;20517;-72
2023/05/01 17:26:04;;;;;;;3.22;1.67;;;;;;;20.72;43.68;99359.75;20918335;28;20040;-71
2023/05/01 17:36:05;;;;;;;2.15;1.00;;;;;;;20.48;43.62;99325.88;20927254;28;20045;-72
2023/05/01 17:46:06;;;;;;;1.73;1.15;;;;;;;20.91;43.60;99386.50;20915872;28;20020;-71
2023/05/01 17:56:08;;;;;;;1.33;0.90;;;;;;;20.74;43.74;99356.63;20915220;28;20029;-72
2023/05/01 18:06:09;;;;;;;1.80;1.33;;;;;;;20.58;43.73;99333.97;20914439;28;20029;-71
2023/05/01 18:16:11;;;;;;;1.27;1.17;;;;;;;20.89;43.58;99385.97;20913491;28;20049;-71
2023/05/01 18:26:12;;;;;;;2.58;1.25;;;;;;;20.81;43.65;99377.28;20912845;28;20091;-72
2023/05/01 18:36:14;;;;;;;2.20;1.13;;;;;;;20.84;43.78;99372.22;20912082;28;20040;-71
2023/05/01 18:46:15;;;;;;;2.45;1.45;;;;;;;20.75;43.82;99366.59;20911486;28;20048;-71
2023/05/01 18:56:16;;;;;;;1.40;0.90;;;;;;;20.75;43.60;99342.41;20892660;28;20037;-72
2023/05/01 19:06:18;;;;;;;2.20;1.17;;;;;;;20.84;43.45;99366.66;20892634;28;20033;-71
2023/05/01 19:16:19;;;;;;;2.35;1.08;;;;;;;20.82;43.61;99341.97;20908829;28;20061;-72
2023/05/01 19:26:23;;;;;;;1.27;0.85;;;;;;;20.83;43.19;99338.03;20908980;28;20037;-71
2023/05/01 19:36:25;;;;;;;1.42;0.90;;;;;;;20.86;43.19;99342.97;20909261;28;20041;-72
2023/05/01 19:46:26;;;;;;;1.83;1.10;;;;;;;20.95;42.87;99368.03;20908841;28;20029;-72
2023/05/01 19:56:28;;;;;;;1.90;0.98;;;;;;;20.89;42.99;99349.84;20921870;28;20086;-71
2023/05/01 20:06:30;;;;;;;1.65;1.02;;;;;;;20.81;43.07;99352.28;20924089;28;20033;-71
2023/05/01 20:16:37;;;;;;;2.13;1.20;;;;;;;20.92;42.74;99363.13;20923022;28;20049;-71
2023/05/01 20:26:49;;;;;;;1.92;1.10;;;;;;;20.94;42.85;99366.41;20922232;28;20037;-71
2023/05/01 20:36:50;;;;;;;1.98;0.82;;;;;;;20.90;42.63;99365.41;20902046;28;20067;-71
2023/05/01 20:47:08;;;;;;;1.98;1.20;;;;;;;20.61;42.51;99338.06;20920933;28;20033;-73
2023/05/01 20:57:10;;;;;;;0.98;0.95;;;;;;;20.97;42.17;99426.94;20919998;28;20033;-71
2023/05/01 21:07:11;;;;;;;2.03;1.10;;;;;;;21.00;42.00;99429.09;20899837;28;20033;-73
2023/05/01 21:17:14;;;;;;;1.48;0.90;;;;;;;20.83;41.85;99421.44;20899648;28;20554;-72
2023/05/01 21:27:16;;;;;;;1.58;0.90;;;;;;;20.99;41.94;99460.81;20917644;28;20033;-72
2023/05/01 21:37:17;;;;;;;1.15;1.00;;;;;;;21.00;42.04;99476.38;20963872;28;20041;-74
2023/05/01 21:47:21;;;;;;;0.88;0.80;;;;;;;20.87;41.57;99468.91;20939081;28;20029;-73
2023/05/01 21:57:23;;;;;;;2.22;0.90;;;;;;;20.17;41.51;99357.19;20997902;28;20017;-73
2023/05/01 22:07:24;;;;;;;1.77;0.73;;;;;;;20.97;41.58;99490.91;20996616;28;20036;-73
2023/05/01 22:17:25;;;;;;;1.83;0.80;;;;;;;20.90;41.56;99498.88;20930942;28;20106;-72
2023/05/01 22:27:27;;;;;;;1.40;1.00;;;;;;;20.93;41.41;99523.25;20893678;28;20037;-72
2023/05/01 22:37:28;;;;;;;0.95;0.70;;;;;;;20.93;40.76;99537.16;20904299;28;20091;-74
2023/05/01 22:47:30;;;;;;;0.90;0.68;;;;;;;20.87;40.74;99533.69;20899923;28;20079;-73
2023/05/01 22:57:31;;;;;;;1.27;0.70;;;;;;;20.84;41.08;99539.03;20893959;28;20045;-73
2023/05/01 23:07:32;;;;;;;0.80;0.80;;;;;;;20.80;41.32;99534.13;20919214;28;20033;-73
2023/05/01 23:17:34;;;;;;;0.73;0.73;;;;;;;20.77;41.64;99534.75;20919368;28;20048;-74
2023/05/01 23:27:40;;;;;;;1.83;1.02;;;;;;;20.89;41.56;99558.38;21002144;28;20383;-73
2023/05/01 23:37:42;;;;;;;1.55;0.63;;;;;;;20.81;42.20;99544.09;21010026;28;20044;-73
2023/05/01 23:47:43;;;;;;;0.73;0.60;;;;;;;20.87;42.58;99549.53;20953347;28;20074;-75
2023/05/01 23:57:45;;;;;;;0.82;0.70;;;;;;;20.67;42.65;99529.44;20969913;28;20044;-74
